Time;durP1;ratioP1;P1;durP2;ratioP2;P2;SDS_P1;SDS_P2;PMS_P1;PMS_P2;Temp;Humidity;BMP_temperature;BMP_pressure;BME280_temperature;BME280_humidity;BME280_pressure;Samples;Min_cycle;Max_cycle;Signal;HPM_P1;HPM_P2
2020/12/21 00:01:10;;;;;;;6.17;5.53;;;11.50;52.30;;;;;;4964674;28;20181;-96
2020/12/21 00:03:36;;;;;;;4.80;4.40;;;11.20;52.70;;;;;;4963611;28;20821;-94
2020/12/21 00:06:01;;;;;;;4.90;4.40;;;11.20;53.30;;;;;;4963901;28;20189;-94
2020/12/21 00:09:07;;;;;;;3.43;3.20;;;10.80;55.20;;;;;;4963676;28;20177;-93
2020/12/21 00:11:40;;;;;;;3.33;3.13;;;10.80;55.20;;;;;;4962695;28;20205;-94
2020/12/21 00:14:46;;;;;;;3.03;2.70;;;10.60;56.30;;;;;;4962759;28;20177;-94
2020/12/21 00:17:11;;;;;;;3.50;2.73;;;10.80;55.60;;;;;;4963571;28;20177;-96
2020/12/21 00:19:37;;;;;;;2.33;2.10;;;11.30;55.40;;;;;;4962774;28;20463;-95
2020/12/21 00:22:03;;;;;;;3.43;2.63;;;11.10;54.60;;;;;;4966906;28;20177;-95
2020/12/21 00:27:59;;;;;;;2.85;2.60;;;11.10;53.90;;;;;;4984372;28;20152;-95
2020/12/21 00:30:25;;;;;;;3.33;2.80;;;11.20;54.40;;;;;;4968111;28;20542;-94
2020/12/21 00:33:37;;;;;;;3.30;3.10;;;11.30;54.10;;;;;;4966249;28;20405;-94
2020/12/21 00:36:05;;;;;;;3.10;2.90;;;11.30;54.40;;;;;;4965333;28;20232;-94
2020/12/21 00:41:57;;;;;;;2.78;2.40;;;11.10;54.30;;;;;;4983624;28;20376;-94
2020/12/21 00:44:23;;;;;;;3.97;2.50;;;11.30;54.10;;;;;;4965835;28;20215;-94
2020/12/21 00:47:00;;;;;;;2.50;2.30;;;11.60;53.70;;;;;;4966024;28;20412;-94
2020/12/21 00:49:25;;;;;;;3.33;3.03;;;11.60;53.50;;;;;;4965230;28;20181;-94
2020/12/21 00:52:01;;;;;;;2.57;2.37;;;11.10;53.60;;;;;;4964218;28;20423;-94
2020/12/21 00:54:27;;;;;;;9.73;8.90;;;11.20;53.80;;;;;;4965112;28;20216;-94
2020/12/21 00:56:58;;;;;;;11.43;10.30;;;11.20;53.60;;;;;;4965117;28;20511;-94
2020/12/21 00:59:24;;;;;;;5.60;5.00;;;11.30;53.70;;;;;;4963984;28;20181;-93
2020/12/21 01:02:08;;;;;;;3.37;3.10;;;11.10;53.50;;;;;;4964971;28;20180;-93
2020/12/21 01:04:34;;;;;;;3.30;3.00;;;11.10;52.80;;;;;;4964457;28;20690;-93
2020/12/21 01:07:00;;;;;;;3.27;2.60;;;11.40;52.70;;;;;;4964663;28;20408;-93
2020/12/21 01:09:46;;;;;;;5.40;2.63;;;11.60;52.30;;;;;;4964891;28;20173;-93
2020/12/21 01:12:13;;;;;;;3.47;3.20;;;11.60;51.60;;;;;;4963816;28;20180;-93
2020/12/21 01:14:39;;;;;;;3.58;3.28;;;11.10;50.80;;;;;;4964086;28;20507;-93
2020/12/21 01:17:47;;;;;;;2.53;2.33;;;11.10;50.90;;;;;;4963251;28;20705;-93
2020/12/21 01:20:13;;;;;;;3.17;2.50;;;11.10;50.90;;;;;;4963374;28;20254;-93
2020/12/21 01:22:42;;;;;;;2.93;2.60;;;11.00;51.40;;;;;;4963484;28;20185;-93
2020/12/21 01:25:07;;;;;;;2.85;2.42;;;11.00;51.40;;;;;;4964130;28;20201;-92
2020/12/21 01:27:58;;;;;;;2.60;2.40;;;11.10;51.40;;;;;;4965089;28;20176;-93
2020/12/21 01:30:24;;;;;;;2.72;2.53;;;11.20;51.50;;;;;;4964546;28;20176;-94
2020/12/21 01:32:49;;;;;;;3.20;2.90;;;11.00;51.80;;;;;;4964188;28;20170;-93
2020/12/21 01:35:34;;;;;;;2.33;2.13;;;11.10;52.20;;;;;;4963412;28;20254;-93
2020/12/21 01:37:59;;;;;;;3.40;3.10;;;11.00;52.50;;;;;;4964347;28;20173;-94
2020/12/21 01:40:25;;;;;;;2.57;2.37;;;11.10;52.60;;;;;;4963711;28;20177;-94
2020/12/21 01:52:54;;;;;;;5.43;3.25;;;10.80;51.80;;;;;;4999114;28;20177;-96
2020/12/21 02:05:13;;;;;;;2.97;2.67;;;10.60;52.30;;;;;;4932229;29;20210;-95
2020/12/21 02:11:02;;;;;;;2.67;2.42;;;10.60;51.70;;;;;;4933899;29;20166;-93
2020/12/21 02:16:49;;;;;;;5.95;3.20;;;10.10;51.70;;;;;;4934166;29;20175;-94
2020/12/21 02:26:36;;;;;;;2.65;2.45;;;10.20;51.50;;;;;;4933709;28;20239;-93
2020/12/21 13:07:18;;;;;;;6.50;6.00;;;11.40;51.20;;;;;;673440;23;21036;-89
2020/12/21 13:13:47;;;;;;;6.07;5.47;;;11.10;51.80;;;;;;4969179;29;20931;-96
2020/12/21 13:19:36;;;;;;;4.90;4.40;;;10.90;51.80;;;;;;4966364;29;20516;-95
2020/12/21 13:28:54;;;;;;;8.10;6.40;;;11.40;51.30;;;;;;4969885;28;20377;-96
2020/12/21 14:41:00;;;;;;;7.23;6.63;;;12.70;48.10;;;;;;4987884;28;20484;-94
2020/12/21 14:43:25;;;;;;;7.47;6.77;;;13.10;48.30;;;;;;4965203;28;20751;-92
2020/12/21 14:45:52;;;;;;;7.43;6.73;;;12.70;47.70;;;;;;4964180;28;20455;-93
2020/12/21 14:48:17;;;;;;;6.83;6.23;;;12.80;48.30;;;;;;4963753;28;20177;-89
2020/12/21 14:50:46;;;;;;;9.23;7.37;;;12.60;48.30;;;;;;4963768;28;20421;-93
2020/12/21 14:53:12;;;;;;;8.37;7.60;;;12.90;48.40;;;;;;4964106;28;20275;-94
2020/12/21 14:56:00;;;;;;;8.83;6.70;;;12.50;48.20;;;;;;4964059;28;20428;-92
2020/12/21 14:58:25;;;;;;;7.20;6.10;;;12.70;48.30;;;;;;4958635;29;20505;-94
2020/12/21 15:01:26;;;;;;;11.13;9.20;;;12.90;48.70;;;;;;4956328;28;20464;-93
2020/12/21 15:03:52;;;;;;;13.87;10.33;;;12.60;49.00;;;;;;4964380;28;20571;-94
2020/12/21 15:06:55;;;;;;;9.60;7.00;;;12.50;49.10;;;;;;4963122;28;20465;-94
2020/12/21 15:09:21;;;;;;;16.33;13.77;;;12.50;48.50;;;;;;4959448;28;20180;-95
2020/12/21 15:47:14;;;;;;;9.30;8.50;;;12.40;46.50;;;;;;4978115;28;20457;-93
2020/12/21 15:49:42;;;;;;;18.13;16.40;;;12.40;46.80;;;;;;4970621;28;20189;-96
2020/12/21 16:34:33;;;;;;;26.70;21.73;;;12.50;48.70;;;;;;4996204;28;20499;-92
2020/12/21 16:36:59;;;;;;;25.80;23.10;;;12.80;49.30;;;;;;4979914;28;20824;-92
2020/12/21 16:39:25;;;;;;;24.90;22.20;;;12.70;49.20;;;;;;4980387;28;20188;-91
2020/12/21 16:41:55;;;;;;;23.10;19.93;;;12.70;49.10;;;;;;4980329;28;20290;-91
2020/12/21 16:44:22;;;;;;;24.60;21.03;;;12.80;49.20;;;;;;4981483;28;20192;-91
2020/12/21 16:46:48;;;;;;;19.88;17.88;;;12.90;49.40;;;;;;4982359;28;20441;-88
2020/12/21 16:49:21;;;;;;;19.50;17.70;;;12.70;49.20;;;;;;4983284;28;20427;-89
2020/12/21 16:51:49;;;;;;;18.40;16.70;;;12.90;49.30;;;;;;4982022;28;20263;-90
2020/12/21 16:54:15;;;;;;;20.17;18.07;;;13.00;49.10;;;;;;4983740;28;20422;-91
2020/12/21 16:56:41;;;;;;;17.87;16.17;;;13.00;48.80;;;;;;4980157;28;20453;-91
2020/12/21 16:59:12;;;;;;;16.30;14.70;;;13.20;49.70;;;;;;4978645;28;20795;-93
2020/12/21 17:01:38;;;;;;;18.17;16.30;;;12.90;48.70;;;;;;4983841;28;20412;-91
2020/12/21 17:04:12;;;;;;;15.10;13.60;;;13.00;48.80;;;;;;4985016;28;20407;-91
2020/12/21 17:06:38;;;;;;;14.03;12.63;;;12.90;48.70;;;;;;4970918;28;20865;-91
2020/12/21 17:09:19;;;;;;;13.40;12.10;;;12.90;48.80;;;;;;4964547;28;20412;-90
2020/12/21 17:11:53;;;;;;;15.43;13.60;;;12.70;48.80;;;;;;4964936;28;20165;-92
2020/12/21 17:14:49;;;;;;;14.40;12.40;;;13.20;49.10;;;;;;4964570;28;20416;-92
2020/12/21 17:17:16;;;;;;;13.30;11.20;;;12.70;49.10;;;;;;4964969;28;20405;-92
2020/12/21 17:19:42;;;;;;;13.50;12.07;;;12.80;49.30;;;;;;4970105;28;20403;-92
2020/12/21 17:22:08;;;;;;;14.27;12.93;;;12.90;49.70;;;;;;4985014;28;20470;-92
2020/12/21 17:24:35;;;;;;;13.97;12.47;;;12.60;49.80;;;;;;4983521;28;20541;-93
2020/12/21 17:27:01;;;;;;;14.48;12.93;;;12.70;50.00;;;;;;4981063;28;20591;-91
2020/12/21 17:29:42;;;;;;;13.80;12.53;;;12.70;49.70;;;;;;4982899;28;20213;-92
2020/12/21 17:32:07;;;;;;;16.80;13.63;;;12.70;49.90;;;;;;4982015;28;20183;-91
2020/12/21 17:34:33;;;;;;;17.93;13.63;;;12.80;49.30;;;;;;4982310;28;20922;-92
2020/12/21 17:40:21;;;;;;;19.97;17.27;;;12.80;49.20;;;;;;4999392;28;20183;-91
2020/12/21 17:43:05;;;;;;;16.10;14.13;;;12.70;49.40;;;;;;4981472;28;20412;-91
2020/12/21 17:45:31;;;;;;;9.73;8.73;;;12.50;49.70;;;;;;4978873;28;20223;-92
2020/12/21 17:47:57;;;;;;;12.50;10.67;;;12.40;49.90;;;;;;4979341;28;20426;-91
2020/12/21 17:50:22;;;;;;;10.50;9.40;;;12.30;50.00;;;;;;4976849;28;20567;-92
2020/12/21 17:56:10;;;;;;;8.17;7.33;;;13.00;50.50;;;;;;4980407;28;20165;-93
2020/12/21 17:58:36;;;;;;;7.87;7.17;;;12.70;50.30;;;;;;4964999;28;20782;-92
2020/12/21 18:01:03;;;;;;;9.17;7.00;;;12.80;50.30;;;;;;4977588;28;20420;-92
2020/12/21 18:03:29;;;;;;;9.10;8.20;;;12.20;49.70;;;;;;4983984;28;20251;-92
2020/12/21 18:06:30;;;;;;;9.03;8.13;;;12.90;50.10;;;;;;4982697;28;20447;-92
2020/12/21 18:08:56;;;;;;;8.73;7.90;;;12.90;50.30;;;;;;4983772;28;20207;-92
2020/12/21 18:11:22;;;;;;;12.23;9.03;;;12.70;50.60;;;;;;4983740;28;20782;-91
2020/12/21 18:13:47;;;;;;;8.57;7.78;;;12.70;50.80;;;;;;4982796;28;20421;-92
2020/12/21 18:16:16;;;;;;;9.50;8.40;;;12.60;50.60;;;;;;4976551;28;20423;-92
2020/12/21 18:18:42;;;;;;;10.60;8.40;;;12.80;50.60;;;;;;4964794;28;20185;-92
2020/12/21 18:21:16;;;;;;;12.10;8.10;;;12.50;50.10;;;;;;4965527;28;20420;-89
2020/12/21 18:23:42;;;;;;;10.63;7.67;;;12.70;50.30;;;;;;4965239;28;20416;-92
2020/12/21 18:26:18;;;;;;;10.37;8.70;;;12.70;50.10;;;;;;4966025;28;20456;-92
2020/12/21 18:28:44;;;;;;;12.30;8.10;;;12.70;50.30;;;;;;4977975;28;20180;-93
2020/12/21 18:31:20;;;;;;;9.60;8.03;;;12.80;50.50;;;;;;4986341;28;20419;-90
2020/12/21 18:33:52;;;;;;;11.53;8.73;;;12.80;50.30;;;;;;4985084;28;20493;-91
2020/12/21 18:36:19;;;;;;;24.07;16.27;;;12.90;50.40;;;;;;4968222;28;20427;-90
2020/12/21 18:38:44;;;;;;;19.33;16.80;;;12.70;50.70;;;;;;4983704;28;20420;-91
2020/12/21 18:41:10;;;;;;;18.27;16.40;;;12.80;51.00;;;;;;4982702;28;20332;-91
2020/12/21 18:43:50;;;;;;;12.60;11.30;;;12.70;50.70;;;;;;4984076;28;20586;-90
2020/12/21 18:46:16;;;;;;;11.70;10.50;;;12.70;50.60;;;;;;4987550;28;20276;-91
2020/12/21 18:48:44;;;;;;;13.77;12.30;;;12.70;50.60;;;;;;4972963;28;20425;-91
2020/12/21 18:51:10;;;;;;;13.73;11.40;;;12.70;50.80;;;;;;4965004;28;20192;-90
2020/12/21 18:53:36;;;;;;;19.40;17.53;;;12.60;50.70;;;;;;4962463;28;20983;-90
2020/12/21 18:56:03;;;;;;;14.50;13.10;;;12.80;51.10;;;;;;4979539;28;20411;-89
2020/12/21 18:58:37;;;;;;;12.20;10.90;;;12.80;51.30;;;;;;4979119;28;20463;-91
2020/12/21 19:01:09;;;;;;;10.70;8.67;;;12.50;51.00;;;;;;4980395;28;20443;-90
2020/12/21 19:03:36;;;;;;;13.43;9.60;;;12.40;50.90;;;;;;4979203;28;20926;-91
2020/12/21 19:06:03;;;;;;;10.60;9.00;;;12.50;51.00;;;;;;4980115;28;20814;-93
2020/12/21 19:08:30;;;;;;;10.60;9.50;;;12.60;51.20;;;;;;4979180;28;20455;-92
2020/12/21 19:10:55;;;;;;;18.50;12.53;;;12.50;51.10;;;;;;4981692;28;20419;-90
2020/12/21 19:13:26;;;;;;;8.03;7.07;;;12.60;51.20;;;;;;4979647;28;20412;-90
2020/12/21 19:15:51;;;;;;;8.33;6.60;;;12.50;51.40;;;;;;4965260;28;20656;-90
2020/12/21 19:18:39;;;;;;;10.10;7.47;;;12.40;51.70;;;;;;4981978;28;20448;-90
2020/12/21 19:21:08;;;;;;;9.13;7.37;;;12.70;52.90;;;;;;4979407;28;20326;-91
2020/12/21 19:23:40;;;;;;;9.60;6.90;;;12.70;52.10;;;;;;4966235;28;20423;-92
2020/12/21 19:26:06;;;;;;;9.40;7.13;;;12.70;52.20;;;;;;4976124;28;20813;-92
2020/12/21 19:28:39;;;;;;;10.73;7.90;;;12.50;52.30;;;;;;4982987;28;20411;-93
2020/12/21 19:31:05;;;;;;;6.90;6.20;;;12.30;52.50;;;;;;4984251;28;20182;-93
2020/12/21 19:33:31;;;;;;;9.57;6.90;;;12.70;52.70;;;;;;4982108;28;20443;-90
2020/12/21 19:35:57;;;;;;;9.10;7.80;;;12.70;52.50;;;;;;4981644;28;20434;-92
2020/12/21 19:38:23;;;;;;;7.73;7.03;;;12.50;52.40;;;;;;4981027;28;20184;-92
2020/12/21 19:40:50;;;;;;;8.70;7.00;;;12.40;52.10;;;;;;4981523;28;20487;-92
2020/12/21 19:43:16;;;;;;;7.97;6.90;;;12.10;51.70;;;;;;4982787;28;20922;-91
2020/12/21 19:45:46;;;;;;;6.70;5.57;;;12.90;52.10;;;;;;4982686;28;20516;-92
2020/12/21 19:48:12;;;;;;;7.07;6.47;;;13.00;52.50;;;;;;4975961;28;20411;-93
2020/12/21 19:50:40;;;;;;;7.50;6.80;;;12.70;52.70;;;;;;4967935;28;21008;-92
2020/12/21 19:53:07;;;;;;;7.63;5.77;;;12.60;52.50;;;;;;4981035;28;20176;-92
2020/12/21 19:55:40;;;;;;;5.70;5.10;;;12.50;52.30;;;;;;4980720;28;20910;-93
2020/12/21 19:58:06;;;;;;;6.10;5.50;;;12.60;52.90;;;;;;4979369;28;20417;-92
2020/12/21 20:00:31;;;;;;;6.43;5.73;;;12.60;52.70;;;;;;4981110;28;20199;-92
2020/12/21 20:02:58;;;;;;;6.70;6.00;;;12.80;52.70;;;;;;4979483;28;20191;-92
2020/12/21 20:05:24;;;;;;;5.80;5.13;;;12.80;52.60;;;;;;4980233;28;20460;-90
2020/12/21 20:07:53;;;;;;;6.17;5.60;;;12.70;52.30;;;;;;4982859;28;20428;-93
2020/12/21 20:10:25;;;;;;;7.33;6.60;;;12.70;52.20;;;;;;4984605;28;20187;-92
2020/12/21 20:12:58;;;;;;;7.53;6.47;;;12.80;52.30;;;;;;4982768;28;20446;-94
2020/12/21 20:15:25;;;;;;;10.77;7.90;;;12.80;52.40;;;;;;4980482;28;20778;-90
2020/12/21 20:17:51;;;;;;;6.37;5.80;;;12.80;52.20;;;;;;4973986;28;20481;-91
2020/12/21 20:20:25;;;;;;;7.83;7.03;;;12.80;51.90;;;;;;4981318;28;20462;-92
2020/12/21 20:22:53;;;;;;;8.60;7.77;;;12.90;52.30;;;;;;4970326;28;20185;-92
2020/12/21 20:25:25;;;;;;;7.72;7.03;;;12.70;52.00;;;;;;4982934;28;20440;-92
2020/12/21 20:27:53;;;;;;;12.17;9.70;;;12.80;52.20;;;;;;4984539;28;20204;-95
2020/12/21 20:30:19;;;;;;;10.73;8.83;;;13.00;52.50;;;;;;4982207;28;20447;-92
2020/12/21 20:32:45;;;;;;;9.10;8.20;;;12.70;52.50;;;;;;4976401;28;20468;-93
2020/12/21 20:35:11;;;;;;;13.55;12.25;;;12.80;52.50;;;;;;4971754;28;20443;-94
2020/12/21 20:37:50;;;;;;;12.90;10.77;;;12.70;53.10;;;;;;4983854;28;20226;-95
2020/12/21 20:40:17;;;;;;;13.57;12.27;;;12.90;52.30;;;;;;4987623;28;20817;-94
2020/12/21 20:42:45;;;;;;;11.47;10.27;;;13.10;52.30;;;;;;4985886;28;20418;-94
2020/12/21 20:45:14;;;;;;;10.77;9.67;;;12.90;52.30;;;;;;4987115;28;20977;-96
2020/12/21 20:47:40;;;;;;;9.50;8.63;;;12.70;52.30;;;;;;4987676;28;20415;-95
2020/12/21 20:50:08;;;;;;;7.80;7.00;;;12.70;52.40;;;;;;4987873;28;20407;-96
2020/12/21 20:52:37;;;;;;;10.40;9.50;;;12.70;52.50;;;;;;4989057;28;20439;-95
2020/12/21 20:55:31;;;;;;;9.23;7.90;;;12.70;53.20;;;;;;4987950;28;20423;-94
2020/12/21 20:57:58;;;;;;;7.70;6.97;;;12.70;52.90;;;;;;4987277;28;20439;-93
2020/12/21 21:00:27;;;;;;;9.93;7.63;;;12.40;53.20;;;;;;4989358;28;20969;-93
2020/12/21 21:02:53;;;;;;;8.13;7.43;;;12.50;53.30;;;;;;4987941;28;20404;-95
2020/12/21 21:05:50;;;;;;;11.00;8.60;;;12.60;53.10;;;;;;4988326;28;20455;-94
2020/12/21 21:08:18;;;;;;;8.20;7.43;;;12.90;53.40;;;;;;4987712;28;20396;-94
2020/12/21 21:10:45;;;;;;;7.87;7.13;;;12.60;53.30;;;;;;4987202;28;20423;-95
2020/12/21 21:13:11;;;;;;;8.03;7.33;;;12.40;52.90;;;;;;4988528;28;20396;-95
2020/12/21 21:15:37;;;;;;;10.10;9.10;;;12.70;53.10;;;;;;4980158;28;20427;-94
2020/12/21 21:18:11;;;;;;;10.00;9.00;;;12.80;53.00;;;;;;4983818;28;20418;-93
2020/12/21 21:20:36;;;;;;;9.70;8.70;;;12.90;52.80;;;;;;4981384;28;20184;-94
2020/12/21 21:23:02;;;;;;;7.53;6.90;;;12.90;52.70;;;;;;4986386;28;20467;-92
2020/12/21 21:25:28;;;;;;;10.27;8.73;;;12.90;52.50;;;;;;4985612;28;20456;-93
2020/12/21 21:28:40;;;;;;;8.40;7.60;;;13.30;52.90;;;;;;4986795;28;20469;-92
2020/12/21 21:31:06;;;;;;;8.03;7.30;;;12.80;52.30;;;;;;4986195;28;20204;-93
2020/12/21 21:33:32;;;;;;;7.70;7.00;;;13.30;52.90;;;;;;4985083;28;20467;-92
2020/12/21 21:35:59;;;;;;;6.80;6.20;;;12.90;52.70;;;;;;4985552;28;20458;-92
2020/12/21 21:38:25;;;;;;;8.20;7.40;;;12.90;52.80;;;;;;4984490;28;20418;-94
2020/12/21 21:40:52;;;;;;;8.27;7.47;;;13.10;52.70;;;;;;4978864;28;20407;-94
2020/12/21 21:43:20;;;;;;;8.17;7.47;;;12.90;52.50;;;;;;4986870;28;20832;-94
2020/12/21 21:45:47;;;;;;;8.67;7.87;;;12.80;52.60;;;;;;4977932;28;20456;-93
2020/12/21 21:48:12;;;;;;;8.63;7.80;;;13.10;52.80;;;;;;4983716;28;20412;-92
2020/12/21 21:50:39;;;;;;;7.27;6.57;;;13.30;52.90;;;;;;4982686;28;20446;-92
2020/12/21 21:53:08;;;;;;;8.00;7.20;;;12.80;52.40;;;;;;4983341;28;20769;-94
2020/12/21 21:55:34;;;;;;;7.40;6.77;;;12.90;52.50;;;;;;4983997;28;20426;-92
2020/12/21 21:58:03;;;;;;;8.20;7.57;;;12.80;52.20;;;;;;4984146;28;20879;-93
2020/12/21 22:00:29;;;;;;;8.20;7.40;;;12.70;52.30;;;;;;4984223;28;20454;-93
2020/12/21 22:02:55;;;;;;;8.23;7.53;;;12.80;52.60;;;;;;4967349;28;20413;-94
2020/12/21 22:05:35;;;;;;;8.50;7.67;;;12.80;52.40;;;;;;4983727;28;20448;-92
2020/12/21 22:08:04;;;;;;;10.30;9.30;;;13.40;52.70;;;;;;4984182;28;20407;-94
2020/12/21 22:10:55;;;;;;;8.80;7.90;;;12.80;52.00;;;;;;4985203;28;20783;-94
2020/12/21 22:13:22;;;;;;;8.33;7.53;;;12.80;52.20;;;;;;4984860;28;20458;-94
2020/12/21 22:15:49;;;;;;;8.73;7.23;;;13.40;52.60;;;;;;4983593;28;20444;-91
2020/12/21 22:18:18;;;;;;;8.73;7.93;;;12.80;52.20;;;;;;4983699;28;20416;-94
2020/12/21 22:20:53;;;;;;;9.87;8.90;;;13.50;52.30;;;;;;4983767;28;20584;-94
2020/12/21 22:23:19;;;;;;;9.93;8.93;;;12.90;52.00;;;;;;4982101;28;20485;-92
2020/12/21 22:25:44;;;;;;;13.30;11.23;;;12.90;52.80;;;;;;4982514;28;20447;-94
2020/12/21 22:28:10;;;;;;;10.87;9.87;;;12.80;53.60;;;;;;4982561;28;20184;-92
2020/12/21 22:30:46;;;;;;;11.37;10.33;;;12.50;53.70;;;;;;4982539;28;20420;-93
2020/12/21 22:33:33;;;;;;;11.13;10.03;;;12.70;53.80;;;;;;4982312;28;20223;-92
2020/12/21 22:35:59;;;;;;;12.53;11.33;;;12.80;53.50;;;;;;4981834;28;20463;-92
2020/12/21 22:38:43;;;;;;;12.57;10.93;;;12.40;53.50;;;;;;4982595;28;20423;-91
2020/12/21 22:41:09;;;;;;;11.03;9.93;;;12.30;54.20;;;;;;4964127;28;20451;-92
2020/12/21 22:43:41;;;;;;;12.90;10.70;;;12.30;55.20;;;;;;4982187;28;20416;-92
2020/12/21 22:46:06;;;;;;;11.77;10.47;;;12.40;55.20;;;;;;4984231;28;20878;-92
2020/12/21 22:48:52;;;;;;;13.57;12.43;;;12.30;55.10;;;;;;4982507;28;20443;-92
2020/12/21 22:51:18;;;;;;;10.97;10.07;;;12.50;54.90;;;;;;4962783;28;20173;-91
2020/12/21 22:57:18;;;;;;;9.07;8.13;;;12.30;55.10;;;;;;4978906;28;20531;-88
2020/12/21 22:59:44;;;;;;;6.27;5.57;;;11.90;55.40;;;;;;4962905;28;20492;-96
2020/12/21 23:05:32;;;;;;;5.20;4.80;;;12.00;56.20;;;;;;4984468;28;20207;-93
2020/12/21 23:08:05;;;;;;;4.73;4.20;;;12.00;57.10;;;;;;4979722;28;20416;-92
2020/12/21 23:10:30;;;;;;;3.93;3.60;;;11.60;57.90;;;;;;4980070;28;20416;-92
2020/12/21 23:12:58;;;;;;;3.50;3.20;;;11.70;58.70;;;;;;4979991;28;20404;-91
2020/12/21 23:15:24;;;;;;;4.40;4.00;;;11.60;59.10;;;;;;4979938;28;20656;-92
2020/12/21 23:18:27;;;;;;;4.00;3.70;;;11.80;59.70;;;;;;4979745;28;20481;-91
2020/12/21 23:20:53;;;;;;;3.90;3.60;;;11.90;58.80;;;;;;4978477;28;20424;-92
2020/12/21 23:23:32;;;;;;;3.50;3.20;;;11.80;58.90;;;;;;4979563;28;20184;-92
2020/12/21 23:26:01;;;;;;;4.00;3.60;;;12.00;58.80;;;;;;4979081;28;20447;-92
2020/12/21 23:28:27;;;;;;;3.67;3.30;;;12.00;58.90;;;;;;4979238;28;20404;-91
2020/12/21 23:30:53;;;;;;;3.60;3.30;;;11.90;59.60;;;;;;4978834;28;20423;-91
2020/12/21 23:33:19;;;;;;;2.63;2.43;;;11.90;60.50;;;;;;4978682;28;20451;-92
2020/12/21 23:36:07;;;;;;;3.23;2.90;;;11.80;60.40;;;;;;4978805;28;20790;-91
2020/12/21 23:38:33;;;;;;;3.10;2.90;;;12.00;59.50;;;;;;4978678;28;20419;-91
2020/12/21 23:41:06;;;;;;;3.70;3.40;;;12.00;59.50;;;;;;4979341;28;20479;-92
2020/12/21 23:43:32;;;;;;;2.90;2.70;;;11.90;59.40;;;;;;4979087;28;20180;-93
2020/12/21 23:46:12;;;;;;;3.20;3.00;;;12.20;59.60;;;;;;4979982;28;20454;-93
2020/12/21 23:48:38;;;;;;;2.70;2.50;;;11.90;59.30;;;;;;4979546;28;20168;-94
2020/12/21 23:51:11;;;;;;;3.70;3.37;;;11.80;60.30;;;;;;4978795;28;20412;-93
2020/12/21 23:53:36;;;;;;;3.07;2.80;;;12.00;61.00;;;;;;4979154;28;20176;-92
2020/12/21 23:56:41;;;;;;;2.83;2.33;;;12.30;60.30;;;;;;4978855;28;20407;-93
2020/12/21 23:59:07;;;;;;;3.00;2.70;;;12.40;59.60;;;;;;4979622;28;20172;-93
